Time;durP1;ratioP1;P1;durP2;ratioP2;P2;SDS_P1;SDS_P2;PMS_P1;PMS_P2;Temp;Humidity;BMP_temperature;BMP_pressure;BME280_temperature;BME280_humidity;BME280_pressure;Samples;Min_cycle;Max_cycle;Signal;HPM_P1;HPM_P2
2022/04/21 00:01:34;;;;;;;7.65;3.50;;;7.60;99.90;;;;;;5000690;28;20045;-80
2022/04/21 00:03:59;;;;;;;8.90;3.53;;;7.60;99.90;;;;;;5000575;28;20092;-80
2022/04/21 00:06:25;;;;;;;6.90;4.50;;;7.60;99.90;;;;;;5000355;28;20038;-80
2022/04/21 00:08:50;;;;;;;8.02;3.90;;;7.60;99.90;;;;;;5018042;28;20117;-80
2022/04/21 00:11:16;;;;;;;9.18;4.22;;;7.50;99.90;;;;;;4999158;28;20437;-81
2022/04/21 00:13:42;;;;;;;7.20;3.63;;;7.50;99.90;;;;;;4999721;28;20056;-81
2022/04/21 00:16:08;;;;;;;12.07;4.28;;;7.50;99.90;;;;;;4999551;28;20046;-81
2022/04/21 00:18:33;;;;;;;6.32;4.40;;;7.40;99.90;;;;;;4982973;28;20419;-81
2022/04/21 00:21:01;;;;;;;11.30;3.92;;;7.40;99.90;;;;;;4999126;28;20477;-80
2022/04/21 00:23:27;;;;;;;6.63;3.75;;;7.30;99.90;;;;;;4999952;28;20056;-80
2022/04/21 00:25:58;;;;;;;5.88;4.07;;;7.20;99.90;;;;;;4984659;28;20069;-81
2022/04/21 00:28:25;;;;;;;6.68;3.80;;;7.20;99.90;;;;;;4983791;28;20042;-81
2022/04/21 00:30:50;;;;;;;5.90;4.18;;;7.20;99.90;;;;;;5000316;28;20049;-80
2022/04/21 00:33:17;;;;;;;10.60;3.78;;;7.10;99.90;;;;;;5000788;28;20046;-81
2022/04/21 00:35:42;;;;;;;5.63;3.97;;;7.10;99.90;;;;;;5000459;28;20133;-80
2022/04/21 00:38:08;;;;;;;7.95;4.30;;;7.10;99.90;;;;;;4999294;28;20074;-80
2022/04/21 00:40:34;;;;;;;9.48;4.50;;;7.10;99.90;;;;;;4999817;28;20092;-80
2022/04/21 00:43:00;;;;;;;9.32;4.20;;;7.00;99.90;;;;;;4999881;28;20128;-81
2022/04/21 00:45:27;;;;;;;9.73;4.28;;;7.00;99.90;;;;;;4999187;28;20088;-80
2022/04/21 00:47:55;;;;;;;10.43;4.30;;;7.00;99.90;;;;;;4999200;28;20046;-81
2022/04/21 00:50:33;;;;;;;8.10;4.53;;;7.00;99.90;;;;;;4998556;28;20084;-80
2022/04/21 00:53:00;;;;;;;9.02;4.10;;;7.00;99.90;;;;;;4999291;28;20038;-81
2022/04/21 00:55:26;;;;;;;8.95;4.05;;;7.00;99.90;;;;;;4999430;28;20090;-80
2022/04/21 00:57:53;;;;;;;9.35;4.53;;;7.00;99.90;;;;;;4998705;28;20460;-81
2022/04/21 01:00:19;;;;;;;7.57;4.03;;;7.00;99.90;;;;;;4998958;28;20540;-80
2022/04/21 01:02:50;;;;;;;9.80;4.53;;;7.00;99.90;;;;;;4998774;28;20077;-81
2022/04/21 01:05:25;;;;;;;7.43;3.93;;;7.00;99.90;;;;;;4998956;28;20053;-80
2022/04/21 01:07:53;;;;;;;10.55;4.78;;;6.90;99.90;;;;;;4999003;28;20050;-81
2022/04/21 01:10:19;;;;;;;7.03;5.07;;;6.90;99.90;;;;;;5000730;28;20046;-80
2022/04/21 01:12:45;;;;;;;8.55;4.60;;;6.90;99.90;;;;;;5016467;28;20122;-80
2022/04/21 01:15:10;;;;;;;8.65;4.35;;;6.80;99.90;;;;;;5026515;28;20081;-81
2022/04/21 01:17:38;;;;;;;7.85;4.13;;;6.80;99.90;;;;;;4995167;28;20089;-80
2022/04/21 01:20:05;;;;;;;9.50;4.50;;;6.80;99.90;;;;;;4994671;28;20081;-81
2022/04/21 01:22:31;;;;;;;10.13;5.00;;;6.70;99.90;;;;;;4995342;28;20045;-80
2022/04/21 01:24:57;;;;;;;9.20;5.05;;;6.70;99.90;;;;;;4978673;28;20061;-80
2022/04/21 01:27:27;;;;;;;10.65;5.45;;;6.60;99.90;;;;;;4995071;28;20041;-81
2022/04/21 01:29:53;;;;;;;7.35;4.40;;;6.60;99.90;;;;;;4994559;28;20509;-81
2022/04/21 01:32:19;;;;;;;8.75;5.07;;;6.60;99.90;;;;;;4995194;28;20102;-80
2022/04/21 01:34:44;;;;;;;9.50;4.93;;;6.60;99.90;;;;;;4995418;28;20467;-81
2022/04/21 01:42:38;;;;;;;7.45;4.65;;;6.60;99.90;;;;;;4994747;28;20056;-80
2022/04/21 01:45:04;;;;;;;9.05;4.95;;;6.60;99.90;;;;;;4994768;28;20046;-80
2022/04/21 01:47:29;;;;;;;9.05;4.97;;;6.60;99.90;;;;;;4978258;28;20122;-81
2022/04/21 01:49:55;;;;;;;9.05;4.80;;;6.50;99.90;;;;;;4995442;28;20060;-80
2022/04/21 01:52:20;;;;;;;8.00;5.07;;;6.50;99.90;;;;;;4996463;28;20068;-80
2022/04/21 01:54:50;;;;;;;8.95;4.65;;;6.50;99.90;;;;;;4996762;28;20050;-80
2022/04/21 01:57:18;;;;;;;10.57;5.47;;;6.40;99.90;;;;;;4998125;28;20057;-80
2022/04/21 01:59:44;;;;;;;9.85;4.88;;;6.40;99.90;;;;;;4980217;28;20053;-80
2022/04/21 02:02:09;;;;;;;8.40;4.45;;;6.40;99.90;;;;;;4995994;28;20169;-81
2022/04/21 02:04:35;;;;;;;10.05;5.20;;;6.40;99.90;;;;;;4995736;28;20581;-80
2022/04/21 02:07:03;;;;;;;7.53;4.65;;;6.30;99.90;;;;;;4995342;28;20060;-80
2022/04/21 02:09:28;;;;;;;8.95;4.30;;;6.30;99.90;;;;;;4996151;28;20069;-79
2022/04/21 02:11:54;;;;;;;8.15;4.95;;;6.30;99.90;;;;;;4996289;28;20101;-80
2022/04/21 02:14:19;;;;;;;9.55;5.13;;;6.30;99.90;;;;;;4996355;28;20096;-81
2022/04/21 02:16:45;;;;;;;8.05;4.88;;;6.30;99.90;;;;;;4996276;28;20093;-81
2022/04/21 02:19:10;;;;;;;9.07;5.32;;;6.30;99.90;;;;;;4996035;28;20063;-80
2022/04/21 02:21:36;;;;;;;11.18;5.32;;;6.30;99.90;;;;;;4995930;28;20097;-80
2022/04/21 02:24:01;;;;;;;10.25;5.35;;;6.30;99.90;;;;;;4997015;28;20062;-80
2022/04/21 02:26:27;;;;;;;10.18;5.43;;;6.20;99.90;;;;;;4996558;28;20044;-80
2022/04/21 02:28:52;;;;;;;8.52;4.90;;;6.10;99.90;;;;;;5013761;28;20123;-80
2022/04/21 02:31:18;;;;;;;9.00;4.93;;;6.10;99.90;;;;;;4996621;28;20038;-80
2022/04/21 02:33:43;;;;;;;11.95;5.47;;;6.10;99.90;;;;;;4996244;28;20084;-80
2022/04/21 02:36:09;;;;;;;12.48;5.45;;;6.10;99.90;;;;;;4997031;28;20046;-80
2022/04/21 02:38:34;;;;;;;10.75;4.88;;;6.00;99.90;;;;;;4997090;28;20077;-80
2022/04/21 02:41:01;;;;;;;10.25;5.93;;;6.00;99.90;;;;;;4995740;28;20128;-81
2022/04/21 02:43:27;;;;;;;9.40;5.20;;;6.00;99.90;;;;;;4996592;28;20124;-80
2022/04/21 02:45:52;;;;;;;12.23;5.82;;;6.10;99.90;;;;;;4997167;28;20134;-80
2022/04/21 02:48:18;;;;;;;11.18;5.25;;;5.90;99.90;;;;;;4997159;28;20038;-80
2022/04/21 02:50:44;;;;;;;10.93;5.05;;;5.90;99.90;;;;;;4997127;28;20095;-80
2022/04/21 02:53:11;;;;;;;10.90;5.68;;;5.90;99.90;;;;;;4998285;28;20041;-79
2022/04/21 02:58:22;;;;;;;14.80;6.15;;;5.80;99.90;;;;;;4997762;28;20532;-80
2022/04/21 03:00:48;;;;;;;18.80;7.03;;;5.80;99.90;;;;;;4997487;28;20053;-80
2022/04/21 03:03:14;;;;;;;13.23;6.38;;;5.80;99.90;;;;;;4982352;28;20049;-79
2022/04/21 03:05:39;;;;;;;9.35;5.07;;;5.80;99.90;;;;;;4997494;28;20042;-80
2022/04/21 03:08:05;;;;;;;11.93;5.75;;;5.80;99.90;;;;;;5014974;28;20504;-80
2022/04/21 03:10:32;;;;;;;11.18;5.82;;;5.80;99.90;;;;;;5014487;28;20049;-81
2022/04/21 03:12:58;;;;;;;10.77;5.90;;;5.80;99.90;;;;;;4995653;28;20057;-80
2022/04/21 03:15:24;;;;;;;15.38;5.78;;;5.70;99.90;;;;;;4998750;28;20133;-81
2022/04/21 03:17:50;;;;;;;14.38;6.22;;;5.70;99.90;;;;;;5000051;28;20061;-81
2022/04/21 03:25:44;;;;;;;11.40;5.68;;;5.60;99.90;;;;;;5000179;28;20145;-81
2022/04/21 03:28:10;;;;;;;11.80;5.63;;;5.60;99.90;;;;;;5000053;28;20050;-80
2022/04/21 03:30:36;;;;;;;14.98;6.43;;;5.60;99.90;;;;;;5016433;28;20061;-81
2022/04/21 03:33:01;;;;;;;11.73;5.95;;;5.60;99.90;;;;;;4999127;28;20042;-80
2022/04/21 03:35:27;;;;;;;14.73;6.13;;;5.60;99.90;;;;;;4999465;28;20073;-81
2022/04/21 03:37:53;;;;;;;13.45;6.18;;;5.60;99.90;;;;;;4983352;28;20053;-80
2022/04/21 03:40:18;;;;;;;13.07;6.45;;;5.60;99.90;;;;;;5017232;28;20088;-81
2022/04/21 03:42:44;;;;;;;10.88;6.28;;;5.50;99.90;;;;;;5016811;28;20397;-80
2022/04/21 03:45:09;;;;;;;10.32;6.50;;;5.50;99.90;;;;;;5016521;28;20485;-80
2022/04/21 03:47:35;;;;;;;16.25;7.72;;;5.60;99.90;;;;;;5001029;28;20042;-80
2022/04/21 03:50:00;;;;;;;11.80;6.20;;;5.60;99.90;;;;;;5000373;28;20398;-80
2022/04/21 03:52:26;;;;;;;14.57;7.10;;;5.50;99.90;;;;;;5000150;28;20041;-80
2022/04/21 03:54:51;;;;;;;13.30;6.30;;;5.50;99.90;;;;;;4999410;28;20412;-80
2022/04/21 03:57:17;;;;;;;12.77;6.65;;;5.50;99.90;;;;;;5000367;28;20053;-80
2022/04/21 03:59:42;;;;;;;12.55;6.82;;;5.50;99.90;;;;;;4999885;28;20046;-80
2022/04/21 04:02:08;;;;;;;16.50;6.88;;;5.50;99.90;;;;;;5000996;28;20121;-79
2022/04/21 04:04:35;;;;;;;14.35;6.10;;;5.50;99.90;;;;;;5036216;28;20046;-79
2022/04/21 04:12:37;;;;;;;13.20;7.10;;;5.40;99.90;;;;;;4996528;28;20053;-81
2022/04/21 04:15:04;;;;;;;11.88;6.35;;;5.40;99.90;;;;;;4996751;28;20501;-80
2022/04/21 04:17:30;;;;;;;12.07;6.70;;;5.40;99.90;;;;;;4996889;28;20342;-79
2022/04/21 04:19:55;;;;;;;17.35;6.75;;;5.40;99.90;;;;;;4996031;28;20038;-80
2022/04/21 04:22:21;;;;;;;14.82;7.47;;;5.40;99.90;;;;;;4996929;28;20526;-80
2022/04/21 04:24:46;;;;;;;13.20;7.00;;;5.40;99.90;;;;;;4996083;28;20045;-80
2022/04/21 04:27:12;;;;;;;13.45;7.03;;;5.40;99.90;;;;;;4996651;28;20045;-80
2022/04/21 04:29:38;;;;;;;14.35;7.32;;;5.40;99.90;;;;;;4995765;28;20041;-81
2022/04/21 04:32:04;;;;;;;11.15;7.20;;;5.40;99.90;;;;;;4980402;28;20331;-80
2022/04/21 04:34:29;;;;;;;15.05;7.97;;;5.40;99.90;;;;;;4996622;28;20128;-80
2022/04/21 04:36:55;;;;;;;25.40;11.80;;;5.40;99.90;;;;;;4996292;28;20564;-80
2022/04/21 04:39:21;;;;;;;29.13;14.55;;;5.40;99.90;;;;;;4996715;28;20495;-80
2022/04/21 04:44:31;;;;;;;18.30;8.23;;;5.40;99.90;;;;;;4996349;28;20044;-79
2022/04/21 04:46:57;;;;;;;15.85;7.80;;;5.50;99.90;;;;;;4998223;28;20042;-79
2022/04/21 04:49:23;;;;;;;13.55;7.40;;;5.50;99.90;;;;;;4997214;28;20041;-79
2022/04/21 04:51:49;;;;;;;16.05;8.32;;;5.60;99.90;;;;;;4980439;28;20044;-79
2022/04/21 04:54:15;;;;;;;15.55;7.55;;;5.60;99.90;;;;;;4996277;28;20420;-80
2022/04/21 04:56:42;;;;;;;19.40;7.28;;;5.70;99.90;;;;;;4996630;28;20045;-79
2022/04/21 04:59:08;;;;;;;13.75;7.22;;;5.70;99.90;;;;;;4996232;28;20409;-80
2022/04/21 05:01:39;;;;;;;31.80;15.88;;;5.90;99.90;;;;;;4996501;28;20057;-80
2022/04/21 05:04:06;;;;;;;51.85;22.48;;;6.10;99.90;;;;;;4996695;28;20121;-79
2022/04/21 05:06:37;;;;;;;18.27;9.82;;;6.40;99.90;;;;;;4997085;28;20046;-79
2022/04/21 05:09:04;;;;;;;13.60;7.75;;;6.70;99.90;;;;;;5013447;28;20041;-81
2022/04/21 05:11:30;;;;;;;13.40;8.23;;;6.70;99.90;;;;;;5014531;28;20053;-79
2022/04/21 05:13:55;;;;;;;16.40;7.78;;;6.80;99.90;;;;;;4997686;28;20497;-80
2022/04/21 05:16:21;;;;;;;11.05;7.25;;;6.90;99.90;;;;;;4998652;28;20065;-80
2022/04/21 05:18:48;;;;;;;14.35;7.93;;;6.80;99.90;;;;;;4998130;28;20084;-80
2022/04/21 05:21:15;;;;;;;14.18;7.47;;;6.90;99.90;;;;;;4981937;28;20046;-80
2022/04/21 05:23:44;;;;;;;14.73;8.15;;;6.90;99.90;;;;;;4997829;28;20408;-80
2022/04/21 05:26:10;;;;;;;13.10;8.35;;;6.80;99.90;;;;;;4998045;28;20057;-79
2022/04/21 05:28:36;;;;;;;10.15;6.38;;;6.70;99.90;;;;;;4982265;28;20136;-79
2022/04/21 05:31:02;;;;;;;26.58;11.82;;;6.80;99.90;;;;;;5014647;28;20451;-80
2022/04/21 05:33:29;;;;;;;11.77;7.72;;;6.90;99.90;;;;;;4997850;28;20038;-80
2022/04/21 05:35:57;;;;;;;13.98;7.70;;;6.90;99.90;;;;;;4980364;28;20054;-81
2022/04/21 05:38:23;;;;;;;13.35;7.53;;;6.90;99.90;;;;;;4996313;28;20427;-81
2022/04/21 05:40:49;;;;;;;14.43;7.88;;;6.90;99.90;;;;;;4997566;28;20076;-80
2022/04/21 05:43:20;;;;;;;14.70;7.45;;;7.00;99.90;;;;;;4997261;28;20038;-81
2022/04/21 05:45:46;;;;;;;12.88;7.03;;;7.00;99.90;;;;;;5000282;28;20069;-80
2022/04/21 05:48:15;;;;;;;13.85;6.72;;;7.00;99.90;;;;;;5000821;28;20054;-81
2022/04/21 05:50:48;;;;;;;16.80;8.55;;;7.10;99.90;;;;;;4983928;28;20130;-81
2022/04/21 05:53:26;;;;;;;13.35;8.65;;;7.10;99.90;;;;;;5000438;28;20044;-81
2022/04/21 05:55:53;;;;;;;11.02;7.75;;;7.20;99.90;;;;;;4999838;28;20052;-81
2022/04/21 05:58:20;;;;;;;17.77;7.45;;;7.20;99.90;;;;;;4999778;28;20177;-81
2022/04/21 06:00:46;;;;;;;12.43;6.82;;;7.30;99.90;;;;;;4999223;28;20046;-81
2022/04/21 06:03:12;;;;;;;14.20;7.43;;;7.50;99.90;;;;;;5000508;28;20045;-80
2022/04/21 06:05:39;;;;;;;14.20;7.15;;;7.50;99.90;;;;;;5000519;28;20087;-80
2022/04/21 06:08:06;;;;;;;14.25;7.40;;;7.50;99.90;;;;;;4999124;28;20119;-81
2022/04/21 06:10:32;;;;;;;12.90;6.65;;;7.50;99.90;;;;;;4983193;28;20405;-80
2022/04/21 06:12:58;;;;;;;11.20;7.10;;;7.60;99.90;;;;;;4998379;28;20038;-81
2022/04/21 06:15:23;;;;;;;11.63;7.03;;;7.50;99.90;;;;;;4999402;28;20083;-80
2022/04/21 06:17:49;;;;;;;12.35;6.65;;;7.70;99.90;;;;;;4998627;28;20068;-81
2022/04/21 06:20:14;;;;;;;11.85;7.55;;;7.80;99.90;;;;;;4999165;28;20119;-80
2022/04/21 06:22:40;;;;;;;10.27;7.38;;;7.90;99.90;;;;;;4999737;28;20096;-81
2022/04/21 06:25:06;;;;;;;14.07;7.40;;;8.10;99.90;;;;;;4999875;28;20131;-81
2022/04/21 06:27:31;;;;;;;10.43;6.80;;;8.30;99.90;;;;;;4999615;28;20084;-80
2022/04/21 06:29:59;;;;;;;11.98;6.80;;;8.30;99.90;;;;;;5000326;28;20119;-80
2022/04/21 06:32:25;;;;;;;9.55;5.68;;;8.40;99.90;;;;;;4999698;28;20116;-81
2022/04/21 06:34:50;;;;;;;11.27;6.10;;;8.50;99.90;;;;;;4999422;28;20056;-81
2022/04/21 06:37:16;;;;;;;10.20;5.88;;;8.50;99.90;;;;;;4999871;28;20116;-80
2022/04/21 06:39:41;;;;;;;8.93;5.47;;;8.60;99.90;;;;;;4999070;28;20576;-81
2022/04/21 06:42:07;;;;;;;7.43;5.15;;;8.80;99.90;;;;;;4999819;28;20041;-81
2022/04/21 06:50:01;;;;;;;8.45;4.50;;;9.90;99.90;;;;;;5003371;28;20057;-80
2022/04/21 06:52:27;;;;;;;6.90;4.20;;;10.20;99.90;;;;;;5007447;28;20042;-81
2022/04/21 06:54:53;;;;;;;6.68;3.88;;;10.70;99.90;;;;;;4999377;28;20445;-81
2022/04/21 06:57:19;;;;;;;5.15;3.55;;;11.30;99.90;;;;;;4994435;28;20107;-81
2022/04/21 06:59:45;;;;;;;6.72;4.20;;;11.30;99.90;;;;;;4994460;28;20089;-81
2022/04/21 07:02:12;;;;;;;5.13;3.63;;;11.20;99.90;;;;;;4979531;28;20080;-80
2022/04/21 07:04:38;;;;;;;5.55;3.60;;;11.10;99.90;;;;;;4994887;28;20561;-82
2022/04/21 07:07:04;;;;;;;6.40;4.10;;;11.00;99.90;;;;;;4995392;28;20129;-82
2022/04/21 07:09:29;;;;;;;6.28;3.45;;;11.10;99.90;;;;;;4977781;28;20042;-81
2022/04/21 07:11:55;;;;;;;8.98;3.53;;;11.30;99.90;;;;;;4994598;28;20093;-80
2022/04/21 07:14:20;;;;;;;9.20;3.55;;;11.50;99.90;;;;;;4995051;28;20085;-81
2022/04/21 07:16:46;;;;;;;5.20;3.50;;;11.90;99.90;;;;;;4994460;28;20054;-81
2022/04/21 07:19:11;;;;;;;5.65;2.90;;;12.50;99.90;;;;;;4996141;28;20117;-81
2022/04/21 07:21:37;;;;;;;3.95;2.85;;;13.00;99.90;;;;;;4996005;28;20045;-81
2022/04/21 07:24:02;;;;;;;5.32;3.28;;;13.50;99.90;;;;;;4995213;28;20042;-82
2022/04/21 07:26:28;;;;;;;4.75;3.30;;;13.80;99.90;;;;;;4995841;28;20042;-81
2022/04/21 07:28:54;;;;;;;5.05;3.38;;;14.20;99.90;;;;;;4978162;28;20038;-82
2022/04/21 07:31:19;;;;;;;5.35;3.33;;;14.50;99.90;;;;;;4994633;28;20038;-81
2022/04/21 07:33:45;;;;;;;4.22;2.83;;;14.70;99.90;;;;;;4996273;28;20169;-82
2022/04/21 07:36:10;;;;;;;5.20;2.55;;;14.90;99.90;;;;;;4996912;28;20038;-82
2022/04/21 07:38:36;;;;;;;6.28;2.88;;;15.10;99.90;;;;;;4997104;28;20080;-81
2022/04/21 07:41:02;;;;;;;6.13;2.67;;;15.40;99.90;;;;;;4997608;28;20048;-80
2022/04/21 07:43:28;;;;;;;7.07;2.50;;;15.60;99.90;;;;;;4998250;28;20117;-80
2022/04/21 07:45:54;;;;;;;5.05;2.38;;;15.60;99.90;;;;;;4999167;28;20065;-80
2022/04/21 07:48:20;;;;;;;4.72;2.17;;;15.80;99.90;;;;;;4999330;28;20445;-80
2022/04/21 07:50:45;;;;;;;3.92;2.00;;;15.80;96.50;;;;;;4998673;28;20100;-80
2022/04/21 07:53:14;;;;;;;3.40;2.00;;;15.80;98.20;;;;;;4998588;28;20041;-80
2022/04/21 07:55:41;;;;;;;4.55;2.58;;;15.80;95.00;;;;;;4981997;28;20033;-81
2022/04/21 07:58:06;;;;;;;4.65;2.00;;;15.90;96.30;;;;;;4999358;28;20044;-81
2022/04/21 08:00:34;;;;;;;2.60;2.22;;;16.00;94.60;;;;;;4998417;28;20038;-81
2022/04/21 08:02:59;;;;;;;4.07;2.40;;;16.10;91.50;;;;;;4999259;28;20046;-80
2022/04/21 08:05:25;;;;;;;4.63;2.33;;;16.20;84.30;;;;;;5000788;28;20042;-81
2022/04/21 08:07:51;;;;;;;4.40;2.47;;;16.20;78.70;;;;;;5002121;28;20060;-82
2022/04/21 08:10:17;;;;;;;6.43;2.28;;;16.20;83.40;;;;;;5001139;28;20401;-82
2022/04/21 08:12:45;;;;;;;4.10;1.98;;;16.30;81.50;;;;;;4985596;28;20042;-80
2022/04/21 08:15:12;;;;;;;2.30;2.05;;;16.50;81.50;;;;;;5003026;28;20090;-81
2022/04/21 08:17:39;;;;;;;4.32;1.80;;;16.50;76.90;;;;;;5001622;28;20046;-81
2022/04/21 08:20:09;;;;;;;3.38;2.22;;;16.50;73.80;;;;;;5001782;28;20053;-81
2022/04/21 08:22:36;;;;;;;3.38;2.20;;;16.30;63.80;;;;;;4986212;28;20149;-80
2022/04/21 08:33:15;;;;;;;5.75;2.67;;;16.60;72.80;;;;;;5001027;28;20056;-80
2022/04/21 08:35:41;;;;;;;3.90;2.60;;;16.90;72.40;;;;;;4985224;28;20050;-81
2022/04/21 08:38:09;;;;;;;10.57;3.03;;;16.90;70.10;;;;;;5000937;28;20120;-81
2022/04/21 08:40:36;;;;;;;3.92;2.38;;;17.20;68.30;;;;;;4985585;28;20123;-82
2022/04/21 08:43:13;;;;;;;3.80;2.45;;;17.20;68.20;;;;;;5000861;28;20042;-82
2022/04/21 08:45:39;;;;;;;4.30;2.25;;;17.00;64.70;;;;;;4983969;28;20126;-81
2022/04/21 08:48:06;;;;;;;4.05;2.72;;;17.00;67.00;;;;;;5001343;28;20073;-81
2022/04/21 08:50:33;;;;;;;3.90;2.53;;;17.00;66.40;;;;;;5000535;28;20501;-80
2022/04/21 08:52:59;;;;;;;4.05;2.28;;;17.20;66.20;;;;;;4999604;28;20037;-81
2022/04/21 08:55:25;;;;;;;5.75;2.45;;;17.10;65.70;;;;;;4984477;28;20556;-81
2022/04/21 08:57:52;;;;;;;3.95;2.42;;;16.90;63.40;;;;;;5001628;28;20088;-80
2022/04/21 09:00:18;;;;;;;3.85;2.30;;;16.80;64.30;;;;;;5000645;28;20099;-79
2022/04/21 09:02:48;;;;;;;3.72;2.28;;;16.90;65.60;;;;;;4983967;28;20096;-80
2022/04/21 09:05:13;;;;;;;3.95;2.45;;;16.90;64.90;;;;;;4982317;28;20442;-81
2022/04/21 09:07:46;;;;;;;2.75;2.17;;;17.10;64.30;;;;;;4981307;28;20081;-81
2022/04/21 09:10:14;;;;;;;3.67;2.20;;;17.30;60.10;;;;;;4981438;28;20038;-81
2022/04/21 09:12:52;;;;;;;3.00;2.60;;;17.30;63.90;;;;;;5003565;28;20068;-81
2022/04/21 09:15:26;;;;;;;3.25;2.00;;;17.40;61.00;;;;;;4986786;28;20056;-81
2022/04/21 09:17:56;;;;;;;2.88;2.10;;;17.60;63.50;;;;;;4985293;28;20046;-82
2022/04/21 09:20:26;;;;;;;4.72;2.42;;;17.60;62.30;;;;;;4982144;28;20042;-79
2022/04/21 09:23:00;;;;;;;2.85;2.10;;;17.80;62.60;;;;;;4997866;28;20050;-80
2022/04/21 09:25:28;;;;;;;3.55;2.35;;;17.80;59.80;;;;;;5000563;28;20049;-81
2022/04/21 09:27:56;;;;;;;4.38;2.50;;;17.50;60.00;;;;;;5007008;28;20068;-80
2022/04/21 09:30:21;;;;;;;4.18;2.40;;;17.40;60.60;;;;;;5005137;28;20055;-82
2022/04/21 09:33:00;;;;;;;4.22;2.30;;;17.50;60.10;;;;;;5019675;28;20074;-82
2022/04/21 09:35:29;;;;;;;2.72;2.40;;;17.70;57.80;;;;;;4999444;28;20136;-82
2022/04/21 09:37:56;;;;;;;3.22;2.05;;;17.70;59.20;;;;;;4999229;28;20041;-81
2022/04/21 09:40:26;;;;;;;3.55;2.10;;;17.60;58.40;;;;;;4999046;28;20049;-80
2022/04/21 09:43:03;;;;;;;5.45;2.05;;;17.60;58.30;;;;;;4998094;28;20505;-79
2022/04/21 09:48:29;;;;;;;5.72;2.17;;;17.40;57.50;;;;;;4998143;28;20056;-80
2022/04/21 09:51:16;;;;;;;2.22;2.03;;;17.70;58.00;;;;;;4982199;28;20038;-80
2022/04/21 09:53:51;;;;;;;4.80;2.30;;;17.90;56.60;;;;;;5000520;28;20076;-81
2022/04/21 09:56:17;;;;;;;3.50;2.53;;;18.00;56.70;;;;;;5000737;28;20038;-79
2022/04/21 09:58:46;;;;;;;5.35;2.33;;;18.10;56.80;;;;;;5000071;28;20038;-79
2022/04/21 10:01:11;;;;;;;3.63;2.78;;;18.10;56.70;;;;;;5000288;28;20326;-81
2022/04/21 10:03:41;;;;;;;3.17;2.53;;;18.30;57.40;;;;;;5000973;28;20128;-80
2022/04/21 10:06:06;;;;;;;7.85;2.40;;;18.20;56.30;;;;;;5004724;28;20392;-79
2022/04/21 10:08:34;;;;;;;4.03;1.90;;;18.30;56.00;;;;;;5002421;28;20053;-80
2022/04/21 10:11:00;;;;;;;5.65;2.00;;;18.40;55.90;;;;;;5001037;28;20057;-82
2022/04/21 10:13:25;;;;;;;3.38;2.30;;;18.40;56.00;;;;;;4995742;28;20405;-80
2022/04/21 10:15:52;;;;;;;3.17;2.15;;;18.20;55.20;;;;;;4995491;28;20515;-80
2022/04/21 10:18:19;;;;;;;3.70;1.58;;;18.20;54.90;;;;;;4995538;28;20099;-80
2022/04/21 10:20:45;;;;;;;2.42;1.88;;;18.00;54.70;;;;;;4994916;28;20138;-78
2022/04/21 10:23:16;;;;;;;4.43;1.95;;;17.90;54.40;;;;;;4995286;28;20050;-81
2022/04/21 10:25:43;;;;;;;5.15;2.03;;;17.70;54.50;;;;;;4995395;28;20453;-81
2022/04/21 10:28:33;;;;;;;3.38;1.90;;;17.50;54.60;;;;;;4994835;28;20041;-82
2022/04/21 10:30:58;;;;;;;3.97;2.25;;;17.60;53.20;;;;;;4994963;28;20095;-81
2022/04/21 10:33:52;;;;;;;2.38;1.60;;;17.70;55.20;;;;;;4994794;28;20129;-81
2022/04/21 10:37:03;;;;;;;3.67;1.70;;;17.60;51.40;;;;;;4994731;28;20374;-81
2022/04/21 10:39:30;;;;;;;3.42;1.50;;;17.50;52.00;;;;;;4950494;28;20383;-81
2022/04/21 10:42:13;;;;;;;4.60;2.35;;;17.50;53.90;;;;;;4994861;28;20072;-79
2022/04/21 10:44:53;;;;;;;4.93;2.13;;;17.40;52.60;;;;;;4995353;28;20102;-79
2022/04/21 10:47:30;;;;;;;4.35;1.80;;;17.40;53.20;;;;;;4995174;28;20117;-80
2022/04/21 10:49:57;;;;;;;3.40;2.00;;;17.60;54.20;;;;;;4978866;28;20045;-80
2022/04/21 10:57:48;;;;;;;2.63;1.45;;;17.70;53.90;;;;;;4994326;28;20500;-80
2022/04/21 11:00:31;;;;;;;3.78;2.00;;;17.60;53.50;;;;;;4995147;28;20077;-80
2022/04/21 11:03:08;;;;;;;7.38;2.40;;;17.80;54.60;;;;;;4995043;28;20054;-79
2022/04/21 11:05:35;;;;;;;6.63;2.28;;;17.90;53.90;;;;;;4994963;28;20037;-80
2022/04/21 11:08:02;;;;;;;1.90;1.52;;;18.10;53.80;;;;;;4978489;28;20050;-79
2022/04/21 11:10:39;;;;;;;3.22;1.90;;;17.80;52.20;;;;;;4994227;28;20044;-80
2022/04/21 11:13:12;;;;;;;2.75;1.98;;;17.70;53.20;;;;;;4995456;28;20104;-81
2022/04/21 11:15:50;;;;;;;3.00;1.98;;;17.60;53.60;;;;;;4994648;28;20392;-81
2022/04/21 11:18:20;;;;;;;8.68;2.15;;;17.80;53.30;;;;;;4994636;28;20053;-81
2022/04/21 11:20:48;;;;;;;2.60;1.98;;;17.90;52.70;;;;;;4994472;28;20072;-80
2022/04/21 11:23:24;;;;;;;2.58;1.92;;;18.00;52.50;;;;;;4994323;28;20128;-81
2022/04/21 11:25:51;;;;;;;4.50;2.15;;;17.90;51.70;;;;;;4993408;28;20509;-80
2022/04/21 11:28:24;;;;;;;3.20;1.80;;;17.90;52.40;;;;;;4992813;28;20621;-81
2022/04/21 11:30:56;;;;;;;3.03;2.20;;;18.00;52.20;;;;;;4993255;28;20095;-79
2022/04/21 11:33:22;;;;;;;2.97;2.13;;;18.00;51.90;;;;;;4991855;28;20122;-80
2022/04/21 11:35:48;;;;;;;2.55;2.10;;;18.00;52.50;;;;;;4992998;28;20045;-80
2022/04/21 11:38:14;;;;;;;4.13;2.80;;;18.00;52.60;;;;;;4991996;28;20557;-79
2022/04/21 11:40:40;;;;;;;4.00;2.38;;;17.90;53.00;;;;;;4995750;28;20045;-79
2022/04/21 11:43:18;;;;;;;5.18;1.83;;;17.90;53.30;;;;;;5012940;28;20073;-79
2022/04/21 11:46:00;;;;;;;3.55;2.20;;;17.90;52.80;;;;;;4995692;28;20042;-79
2022/04/21 11:48:31;;;;;;;4.80;2.00;;;18.10;52.90;;;;;;4995365;28;20396;-79
2022/04/21 11:50:57;;;;;;;4.85;2.75;;;18.20;52.30;;;;;;4995976;28;20056;-80
2022/04/21 11:53:26;;;;;;;3.92;2.45;;;18.20;52.80;;;;;;4996373;28;20489;-81
2022/04/21 11:55:53;;;;;;;4.80;2.40;;;18.20;53.70;;;;;;4995969;28;20068;-79
2022/04/21 11:58:36;;;;;;;4.10;2.40;;;18.20;53.60;;;;;;4996385;28;20405;-79
2022/04/21 12:06:46;;;;;;;5.43;2.15;;;18.00;53.40;;;;;;4995630;28;20057;-79
2022/04/21 12:09:17;;;;;;;2.60;1.95;;;18.00;53.40;;;;;;4995264;28;20135;-79
2022/04/21 12:11:51;;;;;;;3.85;1.88;;;18.10;53.30;;;;;;5006401;28;20037;-80
2022/04/21 12:14:17;;;;;;;4.05;1.90;;;18.20;53.80;;;;;;5015035;28;20041;-78
2022/04/21 12:16:44;;;;;;;10.48;3.88;;;18.30;54.20;;;;;;5031050;28;20051;-79
2022/04/21 12:19:15;;;;;;;11.32;2.58;;;18.20;53.20;;;;;;5030357;28;20128;-80
2022/04/21 12:22:01;;;;;;;8.68;2.70;;;18.20;53.60;;;;;;5031932;28;20076;-80
2022/04/21 12:24:36;;;;;;;7.65;2.60;;;18.30;54.10;;;;;;5016085;28;20120;-79
2022/04/21 12:27:05;;;;;;;3.55;2.42;;;18.40;54.30;;;;;;5032438;28;20399;-79
2022/04/21 12:29:44;;;;;;;4.63;2.30;;;18.30;53.00;;;;;;5015151;28;20408;-81
2022/04/21 12:32:09;;;;;;;4.30;2.17;;;18.10;53.20;;;;;;4999340;28;20052;-79
2022/04/21 12:34:39;;;;;;;3.63;2.35;;;18.00;53.10;;;;;;5015948;28;20049;-79
2022/04/21 12:37:06;;;;;;;3.28;2.60;;;18.00;54.00;;;;;;5033353;28;20390;-79
2022/04/21 12:39:31;;;;;;;4.43;2.63;;;18.00;54.20;;;;;;5015157;28;20033;-79
2022/04/21 12:41:58;;;;;;;5.07;3.67;;;17.80;53.90;;;;;;5031956;28;20083;-79
2022/04/21 12:44:25;;;;;;;4.55;2.60;;;17.60;54.20;;;;;;5015370;28;20045;-79
2022/04/21 12:47:03;;;;;;;4.63;2.83;;;17.50;54.10;;;;;;5031637;28;20045;-80
2022/04/21 12:50:01;;;;;;;7.88;3.00;;;17.30;54.50;;;;;;5032666;28;20496;-80
2022/04/21 12:52:36;;;;;;;6.80;2.72;;;17.10;55.30;;;;;;5031640;28;20237;-78
2022/04/21 12:55:05;;;;;;;4.75;3.40;;;17.10;55.70;;;;;;5015252;28;20049;-79
2022/04/21 12:57:30;;;;;;;7.97;3.33;;;17.00;56.20;;;;;;5015199;28;20542;-78
2022/04/21 12:59:56;;;;;;;4.28;2.78;;;17.00;57.10;;;;;;5014846;28;20049;-79
2022/04/21 13:02:22;;;;;;;9.88;3.40;;;17.10;57.40;;;;;;5031812;28;20085;-79
2022/04/21 13:04:48;;;;;;;6.68;2.60;;;17.30;57.50;;;;;;5014742;28;20052;-79
2022/04/21 13:07:14;;;;;;;4.38;2.80;;;17.60;57.70;;;;;;5014801;28;20077;-78
2022/04/21 13:09:39;;;;;;;3.65;2.13;;;17.90;57.10;;;;;;5014576;28;20076;-78
2022/04/21 13:12:06;;;;;;;4.60;3.00;;;18.00;56.10;;;;;;5014875;28;20436;-77
2022/04/21 13:14:31;;;;;;;6.28;2.92;;;18.10;55.90;;;;;;5015089;28;20373;-79
2022/04/21 13:16:57;;;;;;;5.22;2.53;;;18.20;55.50;;;;;;5014942;28;20132;-78
2022/04/21 13:19:24;;;;;;;4.15;2.40;;;18.20;54.90;;;;;;5014361;28;20055;-78
2022/04/21 13:21:52;;;;;;;4.40;2.60;;;18.20;54.40;;;;;;5030978;28;20041;-78
2022/04/21 13:24:18;;;;;;;9.50;2.70;;;18.20;55.80;;;;;;5030972;28;20050;-78
2022/04/21 13:26:44;;;;;;;5.53;2.63;;;18.20;55.10;;;;;;5014809;28;20072;-79
2022/04/21 13:29:09;;;;;;;6.57;2.88;;;18.20;54.60;;;;;;5030922;28;20041;-79
2022/04/21 13:34:19;;;;;;;7.13;3.00;;;18.20;55.70;;;;;;5030810;28;20471;-78
2022/04/21 13:36:44;;;;;;;7.50;3.38;;;18.20;55.70;;;;;;4998143;28;20049;-79
2022/04/21 13:39:11;;;;;;;3.80;2.85;;;18.10;56.00;;;;;;5014303;28;20044;-79
2022/04/21 13:41:36;;;;;;;5.35;2.85;;;18.20;56.40;;;;;;5014060;28;20045;-79
2022/04/21 13:44:02;;;;;;;3.85;2.90;;;18.20;55.90;;;;;;5014088;28;20084;-80